Time;durP1;ratioP1;P1;durP2;ratioP2;P2;SDS_P1;SDS_P2;PMS_P1;PMS_P2;Temp;Humidity;BMP_temperature;BMP_pressure;BME280_temperature;BME280_humidity;BME280_pressure;Samples;Min_cycle;Max_cycle;Signal;HPM_P1;HPM_P2
2022/12/01 00:01:37;;;;;;;29.00;20.47;;;7.90;99.90;;;;;;5022255;28;20201;-34
2022/12/01 00:04:06;;;;;;;34.57;23.93;;;8.00;99.90;;;;;;5007210;28;20252;-34
2022/12/01 00:06:35;;;;;;;36.43;23.50;;;8.00;99.90;;;;;;5007488;28;20268;-33
2022/12/01 00:11:50;;;;;;;33.77;23.10;;;8.00;99.90;;;;;;5007599;28;20236;-34
2022/12/01 00:14:17;;;;;;;31.57;22.47;;;8.00;99.90;;;;;;5007306;28;20288;-32
2022/12/01 00:16:45;;;;;;;32.10;23.10;;;8.00;99.90;;;;;;5007177;28;20276;-34
2022/12/01 00:19:12;;;;;;;31.17;22.13;;;8.00;99.90;;;;;;5021722;28;20284;-33
2022/12/01 00:21:39;;;;;;;32.20;22.43;;;8.00;99.90;;;;;;5007116;28;20217;-34
2022/12/01 00:24:10;;;;;;;32.63;22.90;;;8.00;99.90;;;;;;5006580;28;20251;-32
2022/12/01 00:26:38;;;;;;;30.13;21.47;;;8.10;99.90;;;;;;5006716;28;20525;-33
2022/12/01 00:29:07;;;;;;;29.43;21.93;;;8.10;99.90;;;;;;5006826;28;20324;-34
2022/12/01 00:31:39;;;;;;;32.53;22.73;;;8.10;99.90;;;;;;5007044;28;20210;-33
2022/12/01 00:34:21;;;;;;;30.60;21.90;;;8.10;99.90;;;;;;5007223;28;20197;-33
2022/12/01 00:36:48;;;;;;;31.30;20.53;;;8.10;99.90;;;;;;5007042;28;20205;-33
2022/12/01 00:39:15;;;;;;;30.67;22.67;;;8.10;99.90;;;;;;5007223;28;20715;-33
2022/12/01 00:41:42;;;;;;;29.07;20.57;;;8.10;99.90;;;;;;5006858;28;20221;-34
2022/12/01 00:44:12;;;;;;;32.53;22.07;;;8.10;99.90;;;;;;5006662;28;20263;-33
2022/12/01 00:46:41;;;;;;;31.60;22.47;;;8.10;99.90;;;;;;5006531;28;20593;-33
2022/12/01 00:49:12;;;;;;;29.07;21.77;;;8.10;99.90;;;;;;5006841;28;20343;-33
2022/12/01 00:51:39;;;;;;;33.70;22.43;;;8.20;99.90;;;;;;5006847;28;20248;-33
2022/12/01 00:54:07;;;;;;;35.47;24.50;;;8.20;99.90;;;;;;5006668;28;20197;-33
2022/12/01 00:56:34;;;;;;;33.07;23.87;;;8.10;99.90;;;;;;5006612;28;20260;-33
2022/12/01 00:59:03;;;;;;;31.07;21.97;;;8.10;99.90;;;;;;5006520;28;20275;-33
2022/12/01 01:01:33;;;;;;;33.20;23.73;;;8.20;99.90;;;;;;5005180;28;20670;-33
2022/12/01 01:04:06;;;;;;;32.23;22.37;;;8.20;99.90;;;;;;5006351;28;20209;-34
2022/12/01 01:06:36;;;;;;;33.27;23.63;;;8.20;99.90;;;;;;5007272;28;20249;-33
2022/12/01 01:09:05;;;;;;;30.83;23.20;;;8.20;99.90;;;;;;5006979;28;20232;-33
2022/12/01 01:11:37;;;;;;;33.63;23.53;;;8.20;99.90;;;;;;5007241;28;20206;-33
2022/12/01 01:14:06;;;;;;;30.80;22.27;;;8.20;99.90;;;;;;5006800;28;20193;-33
2022/12/01 01:16:36;;;;;;;34.07;23.40;;;8.20;99.90;;;;;;5007075;28;20226;-33
2022/12/01 01:19:03;;;;;;;35.07;24.80;;;8.20;99.90;;;;;;5006855;28;20228;-33
2022/12/01 01:21:33;;;;;;;32.47;23.43;;;8.20;99.90;;;;;;5007054;28;20642;-33
2022/12/01 01:24:05;;;;;;;32.30;23.67;;;8.20;99.90;;;;;;5006486;28;20628;-33
2022/12/01 01:26:36;;;;;;;34.87;25.37;;;8.20;99.90;;;;;;5006626;28;20194;-34
2022/12/01 01:29:09;;;;;;;34.17;23.13;;;8.20;99.90;;;;;;5020872;28;20774;-33
2022/12/01 01:31:36;;;;;;;37.77;25.70;;;8.20;99.90;;;;;;5006549;28;20688;-33
2022/12/01 01:34:05;;;;;;;38.83;25.67;;;8.20;99.90;;;;;;5006499;28;20271;-33
2022/12/01 01:36:37;;;;;;;37.30;26.17;;;8.20;99.90;;;;;;5008081;28;20443;-33
2022/12/01 01:39:04;;;;;;;33.33;24.37;;;8.20;99.90;;;;;;5010024;28;20248;-34
2022/12/01 01:41:31;;;;;;;40.27;26.67;;;8.20;99.90;;;;;;5025476;28;20209;-34
2022/12/01 01:44:02;;;;;;;34.70;24.40;;;8.10;99.90;;;;;;5024949;28;20305;-33
2022/12/01 01:46:36;;;;;;;36.07;25.63;;;8.10;99.90;;;;;;5010592;28;20201;-34
2022/12/01 01:49:10;;;;;;;35.57;25.10;;;8.20;99.90;;;;;;5009927;28;20236;-33
2022/12/01 01:51:45;;;;;;;36.70;25.40;;;8.20;99.90;;;;;;5010393;28;20202;-33
2022/12/01 01:54:20;;;;;;;34.63;24.73;;;8.20;99.90;;;;;;5010545;28;20639;-33
2022/12/01 01:56:53;;;;;;;36.50;25.70;;;8.20;99.90;;;;;;5025342;28;20213;-33
2022/12/01 01:59:36;;;;;;;34.07;23.13;;;8.20;99.90;;;;;;5007497;28;20213;-33
2022/12/01 02:02:08;;;;;;;35.97;25.00;;;8.20;99.90;;;;;;5013253;28;20633;-34
2022/12/01 02:04:47;;;;;;;33.93;23.97;;;8.10;99.90;;;;;;5019873;28;20295;-33
2022/12/01 02:07:20;;;;;;;36.20;25.10;;;8.20;99.90;;;;;;5018698;28;20209;-34
2022/12/01 02:09:47;;;;;;;36.17;25.20;;;8.20;99.90;;;;;;5038429;28;20267;-33
2022/12/01 02:12:35;;;;;;;38.07;25.43;;;8.10;99.90;;;;;;5009764;28;20528;-33
2022/12/01 02:15:21;;;;;;;36.47;24.70;;;8.10;99.90;;;;;;5009633;28;20218;-33
2022/12/01 02:18:07;;;;;;;36.17;25.27;;;8.10;99.90;;;;;;5022723;28;20229;-33
2022/12/01 02:20:58;;;;;;;36.57;25.23;;;8.10;99.90;;;;;;4997866;28;20271;-34
2022/12/01 02:24:05;;;;;;;36.87;24.93;;;8.10;99.90;;;;;;5009815;28;20761;-34
2022/12/01 02:26:46;;;;;;;37.60;25.20;;;8.10;99.90;;;;;;5009529;28;20197;-33
2022/12/01 02:29:37;;;;;;;35.87;25.33;;;8.10;99.90;;;;;;5009690;28;20320;-33
2022/12/01 02:32:29;;;;;;;35.53;24.67;;;8.10;99.90;;;;;;5009707;28;20724;-33
2022/12/01 02:35:07;;;;;;;35.20;24.03;;;8.10;99.90;;;;;;5009763;28;20228;-33
2022/12/01 02:37:40;;;;;;;38.33;25.83;;;8.10;99.90;;;;;;5009718;28;20228;-33
2022/12/01 02:40:19;;;;;;;36.00;24.00;;;8.10;99.90;;;;;;5009469;28;20229;-31
2022/12/01 02:43:02;;;;;;;34.13;24.37;;;8.10;99.90;;;;;;5009740;28;20315;-31
2022/12/01 02:45:35;;;;;;;35.93;24.43;;;8.10;99.90;;;;;;5009217;28;20201;-31
2022/12/01 02:48:08;;;;;;;39.50;25.03;;;8.10;99.90;;;;;;5009168;28;20665;-32
2022/12/01 02:50:40;;;;;;;36.03;24.30;;;8.10;99.90;;;;;;5024349;28;20209;-32
2022/12/01 02:53:13;;;;;;;37.73;23.90;;;8.10;99.90;;;;;;5009123;28;20558;-30
2022/12/01 02:55:54;;;;;;;35.50;23.67;;;8.10;99.90;;;;;;5009092;28;20201;-31
2022/12/01 02:58:21;;;;;;;42.60;26.70;;;8.00;99.90;;;;;;5009298;28;20209;-32
2022/12/01 03:01:06;;;;;;;38.90;24.17;;;8.00;99.90;;;;;;5009273;28;20233;-31
2022/12/01 03:03:53;;;;;;;39.87;25.80;;;8.00;99.90;;;;;;5008862;28;20209;-32
2022/12/01 03:06:40;;;;;;;36.63;23.83;;;8.00;99.90;;;;;;5008952;28;20497;-31
2022/12/01 03:09:31;;;;;;;36.57;24.67;;;7.90;99.90;;;;;;5008822;28;20222;-31
2022/12/01 03:12:39;;;;;;;41.47;24.43;;;7.90;99.90;;;;;;5008784;28;20680;-31
2022/12/01 03:15:21;;;;;;;38.27;24.27;;;7.90;99.90;;;;;;5008779;28;20619;-32
2022/12/01 03:17:59;;;;;;;40.90;24.60;;;7.90;99.90;;;;;;5009287;28;20204;-31
2022/12/01 03:20:50;;;;;;;35.67;22.40;;;7.90;99.90;;;;;;5008645;28;20251;-31
2022/12/01 03:23:22;;;;;;;40.27;25.37;;;7.90;99.90;;;;;;5008961;28;20206;-31
2022/12/01 03:25:53;;;;;;;40.97;24.83;;;7.90;99.90;;;;;;5008757;28;20209;-32
2022/12/01 03:28:27;;;;;;;43.23;24.53;;;7.90;99.90;;;;;;5008768;28;20201;-30
2022/12/01 03:31:03;;;;;;;44.00;25.03;;;7.90;99.90;;;;;;5008353;28;20197;-32
2022/12/01 03:33:39;;;;;;;43.47;24.80;;;7.90;99.90;;;;;;5008615;28;20205;-31
2022/12/01 03:36:13;;;;;;;38.53;23.17;;;7.90;99.90;;;;;;5008739;28;20194;-31
2022/12/01 03:38:45;;;;;;;41.47;24.77;;;7.90;99.90;;;;;;5008559;28;20267;-31
2022/12/01 03:41:17;;;;;;;41.90;24.67;;;7.90;99.90;;;;;;5008080;28;20281;-30
2022/12/01 03:43:56;;;;;;;44.27;25.43;;;7.90;99.90;;;;;;5008413;28;20683;-32
2022/12/01 03:46:33;;;;;;;44.57;25.67;;;7.90;99.90;;;;;;5008418;28;20267;-31
2022/12/01 03:49:07;;;;;;;44.43;25.43;;;7.80;99.90;;;;;;5008362;28;20241;-31
2022/12/01 03:51:48;;;;;;;50.63;27.27;;;7.90;99.90;;;;;;5008136;28;20202;-32
2022/12/01 03:54:24;;;;;;;44.33;25.50;;;7.80;99.90;;;;;;5008058;28;20213;-32
2022/12/01 03:57:04;;;;;;;50.30;26.90;;;7.80;99.90;;;;;;5007847;28;20204;-32
2022/12/01 03:59:35;;;;;;;47.57;25.37;;;7.80;99.90;;;;;;5022294;28;20307;-31
2022/12/01 04:02:04;;;;;;;46.60;25.13;;;7.80;99.90;;;;;;5006680;28;20235;-32
2022/12/01 04:04:31;;;;;;;41.17;24.50;;;7.70;99.90;;;;;;5008030;28;20328;-31
2022/12/01 04:07:03;;;;;;;48.67;25.73;;;7.80;99.90;;;;;;5007809;28;20204;-31
2022/12/01 04:09:30;;;;;;;49.20;26.60;;;7.80;99.90;;;;;;5007593;28;20256;-30
2022/12/01 04:14:48;;;;;;;44.77;25.13;;;7.80;99.90;;;;;;5007701;28;20447;-31
2022/12/01 04:17:15;;;;;;;49.53;25.73;;;7.70;99.90;;;;;;5022565;28;20229;-31
2022/12/01 04:19:44;;;;;;;47.70;25.87;;;7.70;99.90;;;;;;5007751;28;20212;-32
2022/12/01 04:22:14;;;;;;;45.67;26.00;;;7.70;99.90;;;;;;5007660;28;20212;-31
2022/12/01 04:24:41;;;;;;;46.00;25.70;;;7.80;99.90;;;;;;5007610;28;20205;-31
2022/12/01 04:27:09;;;;;;;51.27;27.00;;;7.80;99.90;;;;;;5007773;28;20303;-31
2022/12/01 04:29:36;;;;;;;51.13;26.50;;;7.80;99.90;;;;;;5007655;28;20240;-31
2022/12/01 04:32:06;;;;;;;54.50;25.57;;;7.80;99.90;;;;;;5007322;28;20204;-31
2022/12/01 04:34:35;;;;;;;54.53;26.93;;;7.80;99.90;;;;;;5007172;28;20193;-32
2022/12/01 04:37:04;;;;;;;45.67;25.60;;;7.80;99.90;;;;;;5007121;28;20237;-31
2022/12/01 04:39:36;;;;;;;52.40;27.60;;;7.80;99.90;;;;;;5007306;28;20248;-30
2022/12/01 04:42:04;;;;;;;53.97;27.93;;;7.80;99.90;;;;;;5007487;28;20642;-32
2022/12/01 04:44:36;;;;;;;49.00;26.90;;;7.80;99.90;;;;;;5006870;28;20746;-31
2022/12/01 04:47:06;;;;;;;52.30;27.90;;;7.80;99.90;;;;;;5007371;28;20229;-31
2022/12/01 04:49:34;;;;;;;59.63;28.63;;;7.80;99.90;;;;;;5006947;28;20241;-34
2022/12/01 04:52:06;;;;;;;45.67;25.13;;;7.80;99.90;;;;;;5006862;28;20639;-34
2022/12/01 04:54:36;;;;;;;55.63;29.03;;;7.90;99.90;;;;;;5007063;28;20355;-31
2022/12/01 04:57:08;;;;;;;60.47;28.53;;;7.80;99.90;;;;;;5021275;28;20212;-31
2022/12/01 04:59:35;;;;;;;54.97;28.23;;;7.90;99.90;;;;;;5006683;28;20201;-32
2022/12/01 05:02:02;;;;;;;51.53;27.50;;;7.90;99.90;;;;;;5006765;28;20216;-31
2022/12/01 05:04:31;;;;;;;52.40;27.73;;;7.90;99.90;;;;;;5021985;28;20284;-31
2022/12/01 05:07:00;;;;;;;56.93;28.93;;;7.90;99.90;;;;;;5005456;28;20206;-31
2022/12/01 05:09:29;;;;;;;55.47;27.97;;;7.90;99.90;;;;;;5007194;28;20271;-31
2022/12/01 05:11:59;;;;;;;54.67;28.23;;;7.90;99.90;;;;;;5006549;28;20542;-31
2022/12/01 05:14:28;;;;;;;56.03;27.43;;;8.00;99.90;;;;;;5006987;28;20205;-31
2022/12/01 05:16:57;;;;;;;57.47;28.10;;;7.90;99.90;;;;;;5006721;28;20285;-32
2022/12/01 05:22:15;;;;;;;55.90;28.47;;;8.00;99.90;;;;;;5006922;28;20220;-32
2022/12/01 05:24:45;;;;;;;57.43;28.80;;;8.00;99.90;;;;;;5006744;28;20659;-31
2022/12/01 05:27:12;;;;;;;57.73;29.20;;;8.00;99.90;;;;;;5006599;28;20228;-31
2022/12/01 05:29:39;;;;;;;58.87;29.10;;;8.00;99.90;;;;;;5006560;28;20347;-31
2022/12/01 05:32:08;;;;;;;57.97;30.07;;;8.00;99.90;;;;;;5006355;28;20271;-31
2022/12/01 05:34:40;;;;;;;59.17;29.90;;;7.90;99.90;;;;;;5006647;28;20227;-31
2022/12/01 05:37:09;;;;;;;54.30;27.53;;;8.00;99.90;;;;;;5006710;28;20298;-31
2022/12/01 05:39:39;;;;;;;54.50;28.80;;;7.90;99.90;;;;;;5006669;28;20755;-31
2022/12/01 05:42:08;;;;;;;51.77;27.70;;;8.00;99.90;;;;;;5005978;28;20205;-32
2022/12/01 05:44:38;;;;;;;52.40;28.43;;;8.00;99.90;;;;;;5006334;28;20697;-32
2022/12/01 05:47:07;;;;;;;53.10;28.40;;;8.00;99.90;;;;;;5006450;28;20309;-31
2022/12/01 05:49:44;;;;;;;56.17;29.77;;;8.00;99.90;;;;;;5006067;28;20261;-31
2022/12/01 05:52:11;;;;;;;56.03;28.07;;;8.00;99.90;;;;;;5006219;28;20851;-31
2022/12/01 05:54:45;;;;;;;55.27;28.63;;;8.00;99.90;;;;;;5005652;28;20212;-31
2022/12/01 05:57:14;;;;;;;56.23;28.77;;;8.00;99.90;;;;;;5005745;28;20744;-31
2022/12/01 05:59:42;;;;;;;51.67;28.43;;;8.00;99.90;;;;;;5006380;28;20263;-31
2022/12/01 06:02:09;;;;;;;54.67;27.70;;;8.00;99.90;;;;;;5006498;28;20577;-31
2022/12/01 06:04:41;;;;;;;62.97;28.40;;;8.00;99.90;;;;;;5005984;28;20217;-31
2022/12/01 06:07:09;;;;;;;54.40;28.10;;;8.00;99.90;;;;;;5006644;28;20620;-33
2022/12/01 06:09:39;;;;;;;52.83;28.83;;;8.00;99.90;;;;;;5021284;28;20222;-33
2022/12/01 06:12:10;;;;;;;50.20;27.43;;;8.00;99.90;;;;;;5020965;28;20233;-33
2022/12/01 06:14:38;;;;;;;56.87;28.83;;;8.00;99.90;;;;;;5005952;28;20292;-31
2022/12/01 06:17:07;;;;;;;52.03;28.47;;;8.00;99.90;;;;;;5006137;28;20419;-32
2022/12/01 06:19:34;;;;;;;55.10;27.97;;;8.00;99.90;;;;;;5006326;28;20779;-31
2022/12/01 06:22:04;;;;;;;54.63;28.83;;;8.00;99.90;;;;;;5006556;28;20218;-31
2022/12/01 06:24:31;;;;;;;55.93;28.00;;;8.10;99.90;;;;;;5009628;28;20206;-32
2022/12/01 06:27:01;;;;;;;54.60;27.30;;;8.10;99.90;;;;;;5009660;28;20206;-31
2022/12/01 06:29:35;;;;;;;51.53;27.40;;;8.00;99.90;;;;;;5024333;28;20213;-31
2022/12/01 06:32:10;;;;;;;51.03;26.73;;;8.10;99.90;;;;;;5009407;28;20221;-32
2022/12/01 06:34:37;;;;;;;53.97;29.33;;;8.10;99.90;;;;;;5024463;28;20208;-31
2022/12/01 06:37:04;;;;;;;52.20;25.77;;;8.10;99.90;;;;;;5009763;28;20256;-31
2022/12/01 06:39:31;;;;;;;56.80;29.10;;;8.10;99.90;;;;;;5009550;28;20240;-31
2022/12/01 06:41:59;;;;;;;46.20;26.33;;;8.10;99.90;;;;;;5009020;28;20190;-31
2022/12/01 06:44:30;;;;;;;52.80;27.40;;;8.10;99.90;;;;;;5009421;28;20958;-31
2022/12/01 06:46:57;;;;;;;54.23;27.37;;;8.10;99.90;;;;;;5009256;28;20288;-32
2022/12/01 06:49:24;;;;;;;56.17;28.83;;;8.00;99.90;;;;;;5008918;28;20271;-31
2022/12/01 06:51:52;;;;;;;47.77;25.57;;;8.10;99.90;;;;;;5009258;28;20193;-31
2022/12/01 06:54:21;;;;;;;54.77;27.47;;;8.10;99.90;;;;;;5009026;28;20201;-31
2022/12/01 06:56:51;;;;;;;50.63;27.83;;;8.00;99.90;;;;;;5008890;28;20597;-32
2022/12/01 06:59:21;;;;;;;53.03;27.80;;;8.10;99.90;;;;;;5008675;28;20297;-31
2022/12/01 07:01:48;;;;;;;52.73;26.80;;;8.10;99.90;;;;;;5024100;28;20335;-32
2022/12/01 07:04:15;;;;;;;51.07;27.63;;;8.10;99.90;;;;;;5009217;28;20214;-31
2022/12/01 07:06:45;;;;;;;55.07;27.07;;;8.10;99.90;;;;;;5008752;28;20198;-30
2022/12/01 07:09:17;;;;;;;50.00;27.17;;;8.10;99.90;;;;;;5023495;28;20614;-31
2022/12/01 07:11:46;;;;;;;50.07;27.27;;;8.10;99.90;;;;;;5008385;28;20283;-31
2022/12/01 07:14:22;;;;;;;55.23;27.57;;;8.10;99.90;;;;;;5009032;28;20567;-31
2022/12/01 07:16:50;;;;;;;55.73;27.70;;;8.10;99.90;;;;;;5008645;28;20663;-31
2022/12/01 07:19:19;;;;;;;50.63;27.77;;;8.10;99.90;;;;;;5008870;28;21075;-33
2022/12/01 07:21:49;;;;;;;47.70;26.50;;;8.10;99.90;;;;;;5008831;28;20610;-33
2022/12/01 07:24:18;;;;;;;43.07;24.13;;;8.10;99.90;;;;;;5008756;28;20221;-34
2022/12/01 07:26:46;;;;;;;47.93;26.77;;;8.10;99.90;;;;;;5009075;28;20225;-32
2022/12/01 07:29:14;;;;;;;44.90;26.30;;;8.10;99.90;;;;;;5023683;28;20186;-34
2022/12/01 07:31:41;;;;;;;45.33;25.20;;;8.20;99.90;;;;;;5008331;28;20218;-33
2022/12/01 07:34:11;;;;;;;48.27;26.90;;;8.20;99.90;;;;;;5007379;28;20263;-33
2022/12/01 07:36:38;;;;;;;50.50;28.20;;;8.20;99.90;;;;;;5023281;28;20415;-33
2022/12/01 07:39:06;;;;;;;47.13;27.23;;;8.20;99.90;;;;;;5008444;28;20198;-33
2022/12/01 07:41:38;;;;;;;49.13;27.67;;;8.20;99.90;;;;;;5022623;28;20218;-34
2022/12/01 07:44:08;;;;;;;48.93;27.77;;;8.20;99.90;;;;;;5008003;28;20352;-33
2022/12/01 07:46:38;;;;;;;45.60;26.80;;;8.20;99.90;;;;;;5008372;28;20212;-33
2022/12/01 07:49:06;;;;;;;46.73;25.27;;;8.20;99.90;;;;;;5007941;28;20648;-33
2022/12/01 07:51:36;;;;;;;50.43;27.70;;;8.20;99.90;;;;;;5006881;28;20932;-34
2022/12/01 07:54:06;;;;;;;48.50;27.70;;;8.20;99.90;;;;;;5008132;28;20214;-33
2022/12/01 07:56:36;;;;;;;48.30;26.73;;;8.20;99.90;;;;;;5022848;28;20205;-33
2022/12/01 07:59:03;;;;;;;48.80;26.63;;;8.10;99.90;;;;;;5007635;28;20289;-34
2022/12/01 08:01:31;;;;;;;49.30;27.70;;;8.10;99.90;;;;;;5007916;28;20316;-33
2022/12/01 08:04:03;;;;;;;48.70;27.77;;;8.10;99.90;;;;;;5008189;28;20324;-33
2022/12/01 08:06:33;;;;;;;51.37;28.63;;;8.10;99.90;;;;;;5007920;28;20637;-33
2022/12/01 08:09:04;;;;;;;50.30;27.00;;;8.10;99.90;;;;;;5007820;28;20297;-33
2022/12/01 08:11:32;;;;;;;48.93;27.27;;;8.10;99.90;;;;;;5022424;28;20226;-33
2022/12/01 08:14:04;;;;;;;51.97;26.47;;;8.20;99.90;;;;;;5007570;28;20224;-34
2022/12/01 08:16:36;;;;;;;47.97;27.40;;;8.10;99.90;;;;;;5006492;28;20267;-33
2022/12/01 08:19:06;;;;;;;48.00;27.27;;;8.20;99.90;;;;;;5007555;28;20241;-33
2022/12/01 08:21:38;;;;;;;44.20;25.57;;;8.20;99.90;;;;;;5022082;28;20201;-37
2022/12/01 08:24:09;;;;;;;46.37;25.00;;;8.20;99.90;;;;;;5022167;28;20213;-33
2022/12/01 08:26:41;;;;;;;39.90;23.87;;;8.20;99.90;;;;;;5007776;28;20205;-32
2022/12/01 08:29:10;;;;;;;41.73;24.10;;;8.30;99.90;;;;;;5007349;28;20206;-33
2022/12/01 08:31:44;;;;;;;45.80;25.60;;;8.30;99.90;;;;;;5007191;28;20221;-34
2022/12/01 08:34:14;;;;;;;44.03;24.43;;;8.30;99.90;;;;;;5007142;28;20205;-33
2022/12/01 08:36:46;;;;;;;39.83;25.03;;;8.30;99.90;;;;;;5007310;28;20296;-33
2022/12/01 08:39:14;;;;;;;41.37;26.10;;;8.30;99.90;;;;;;5007117;28;20205;-34
2022/12/01 08:41:41;;;;;;;44.70;25.03;;;8.30;99.90;;;;;;5007124;28;20312;-34
2022/12/01 08:44:09;;;;;;;42.13;25.77;;;8.30;99.90;;;;;;5007707;28;20696;-33
2022/12/01 08:46:39;;;;;;;45.53;25.47;;;8.30;99.90;;;;;;5006745;28;20209;-34
2022/12/01 08:49:08;;;;;;;45.53;25.80;;;8.30;99.90;;;;;;5006871;28;20652;-33
2022/12/01 08:51:35;;;;;;;44.63;26.03;;;8.30;99.90;;;;;;5007010;28;20272;-33
2022/12/01 08:54:05;;;;;;;45.23;25.37;;;8.30;99.90;;;;;;5021981;28;20750;-33
2022/12/01 08:56:37;;;;;;;47.07;26.77;;;8.30;99.90;;;;;;5007016;28;20676;-33
2022/12/01 08:59:08;;;;;;;44.07;25.43;;;8.30;99.90;;;;;;5006929;28;20193;-33
2022/12/01 09:01:50;;;;;;;39.90;24.30;;;8.30;99.90;;;;;;5006981;28;20212;-33
2022/12/01 09:04:22;;;;;;;46.73;25.63;;;8.30;99.90;;;;;;5007029;28;20209;-32
2022/12/01 09:06:52;;;;;;;42.53;23.03;;;8.30;99.90;;;;;;5007219;28;20627;-33
2022/12/01 09:09:25;;;;;;;40.83;24.57;;;8.30;99.90;;;;;;5006746;28;20296;-34
2022/12/01 09:11:53;;;;;;;53.67;25.77;;;8.30;99.90;;;;;;5006689;28;20226;-33
2022/12/01 09:14:24;;;;;;;42.80;25.30;;;8.40;99.90;;;;;;5006873;28;20568;-34
2022/12/01 09:16:52;;;;;;;45.03;25.07;;;8.40;99.90;;;;;;5006122;28;20202;-33
2022/12/01 09:19:22;;;;;;;42.80;24.97;;;8.40;99.90;;;;;;5006487;28;20617;-33
2022/12/01 09:21:53;;;;;;;42.60;24.63;;;8.40;99.90;;;;;;5006430;28;20224;-33
2022/12/01 09:24:21;;;;;;;40.73;22.93;;;8.40;99.90;;;;;;5006481;28;20260;-33
2022/12/01 09:26:56;;;;;;;40.93;24.93;;;8.50;99.90;;;;;;5006323;28;20205;-34
2022/12/01 09:29:24;;;;;;;40.50;24.60;;;8.50;99.90;;;;;;5006661;28;20197;-33
2022/12/01 09:31:56;;;;;;;39.77;23.13;;;8.60;99.90;;;;;;5006610;28;20232;-34
2022/12/01 09:34:26;;;;;;;43.53;24.13;;;8.60;99.90;;;;;;5021290;28;20213;-33
2022/12/01 09:36:57;;;;;;;41.93;24.73;;;8.60;99.90;;;;;;5005230;28;20198;-33
2022/12/01 09:39:24;;;;;;;40.93;24.60;;;8.50;99.90;;;;;;5021232;28;20213;-33
2022/12/01 09:42:06;;;;;;;45.73;24.97;;;8.50;99.90;;;;;;5020652;28;20201;-33
2022/12/01 09:44:50;;;;;;;41.73;24.90;;;8.50;99.90;;;;;;5006485;28;20212;-33
2022/12/01 09:47:35;;;;;;;43.03;25.23;;;8.50;99.90;;;;;;5006483;28;20227;-33
2022/12/01 09:50:11;;;;;;;37.27;23.73;;;8.50;99.90;;;;;;5005958;28;20265;-33
2022/12/01 09:52:47;;;;;;;40.93;25.10;;;8.50;99.90;;;;;;5006708;28;20676;-32
2022/12/01 09:55:18;;;;;;;37.93;23.00;;;8.40;99.90;;;;;;5006429;28;20684;-33
2022/12/01 09:57:52;;;;;;;42.03;24.20;;;8.40;99.90;;;;;;5023375;28;20286;-33
2022/12/01 10:00:19;;;;;;;44.03;24.47;;;8.40;99.90;;;;;;5010443;28;20592;-33
2022/12/01 10:03:28;;;;;;;38.20;23.50;;;8.40;99.90;;;;;;5010117;28;20193;-33
2022/12/01 10:06:01;;;;;;;37.90;23.43;;;8.50;99.90;;;;;;5009352;28;20206;-34
2022/12/01 10:09:19;;;;;;;36.63;22.40;;;8.50;99.90;;;;;;5009787;28;20702;-33
2022/12/01 10:11:55;;;;;;;38.97;23.60;;;8.50;99.90;;;;;;5009921;28;20233;-33
2022/12/01 10:14:22;;;;;;;35.73;22.73;;;8.50;99.90;;;;;;5008309;28;20193;-34
2022/12/01 10:17:13;;;;;;;35.57;21.83;;;8.50;99.90;;;;;;5009676;28;20213;-33
2022/12/01 10:19:58;;;;;;;35.27;22.60;;;8.60;99.90;;;;;;5010272;28;20198;-34
2022/12/01 10:22:54;;;;;;;35.23;22.30;;;8.50;99.90;;;;;;5009438;28;20217;-33
2022/12/01 10:25:27;;;;;;;39.87;22.30;;;8.60;99.90;;;;;;5009853;28;20210;-33
2022/12/01 10:28:33;;;;;;;33.73;21.83;;;8.60;99.90;;;;;;5010060;28;20647;-33
2022/12/01 10:31:12;;;;;;;31.33;20.10;;;8.60;99.90;;;;;;5009361;28;20733;-33
2022/12/01 10:34:03;;;;;;;34.47;21.30;;;8.60;99.90;;;;;;5009384;28;20708;-33
2022/12/01 10:36:33;;;;;;;36.73;22.03;;;8.60;99.90;;;;;;5009057;28;20225;-33
2022/12/01 10:39:03;;;;;;;38.00;22.23;;;8.70;99.90;;;;;;5009506;28;20229;-34
2022/12/01 10:41:36;;;;;;;35.90;21.73;;;8.60;99.90;;;;;;5009471;28;20201;-33
2022/12/01 10:44:08;;;;;;;39.63;22.47;;;8.70;99.90;;;;;;5009312;28;20774;-33
2022/12/01 10:47:17;;;;;;;35.57;21.97;;;8.70;99.90;;;;;;5009157;28;20218;-33
2022/12/01 10:49:44;;;;;;;37.10;21.10;;;8.70;99.90;;;;;;4998239;28;20237;-33
2022/12/01 10:52:47;;;;;;;32.47;21.23;;;8.70;99.90;;;;;;5009259;28;20348;-33
2022/12/01 10:55:33;;;;;;;32.30;20.60;;;8.80;99.90;;;;;;4998128;28;20209;-33
2022/12/01 10:58:11;;;;;;;32.90;20.70;;;8.80;99.90;;;;;;5008923;28;20232;-33
2022/12/01 11:00:53;;;;;;;31.50;20.90;;;8.80;99.90;;;;;;5009029;28;20284;-33
2022/12/01 11:03:34;;;;;;;32.70;20.47;;;8.80;99.90;;;;;;5008991;28;20201;-33
2022/12/01 11:06:04;;;;;;;38.57;21.83;;;8.90;99.90;;;;;;5008868;28;20256;-33
2022/12/01 11:08:51;;;;;;;33.33;21.33;;;8.90;99.90;;;;;;5008947;28;20285;-33
2022/12/01 11:11:41;;;;;;;34.10;21.47;;;8.90;99.90;;;;;;5008505;28;20224;-33
2022/12/01 11:14:27;;;;;;;31.53;20.80;;;9.00;99.90;;;;;;5009104;28;20201;-33
2022/12/01 11:17:15;;;;;;;33.70;21.00;;;9.00;99.90;;;;;;5008259;28;20702;-34
2022/12/01 11:19:42;;;;;;;29.40;19.23;;;9.00;99.90;;;;;;5008361;28;20652;-33
2022/12/01 11:22:32;;;;;;;36.13;20.90;;;9.00;99.90;;;;;;5023599;28;20281;-33
2022/12/01 11:25:05;;;;;;;36.23;21.47;;;9.00;99.90;;;;;;5008202;28;20237;-33
2022/12/01 11:27:49;;;;;;;31.13;19.83;;;9.00;99.90;;;;;;5008357;28;20204;-33
2022/12/01 11:30:24;;;;;;;30.47;20.03;;;9.10;99.90;;;;;;5023572;28;20732;-33
2022/12/01 11:33:05;;;;;;;33.07;19.93;;;9.10;99.90;;;;;;5023020;28;20202;-33
2022/12/01 11:35:36;;;;;;;30.50;19.53;;;9.10;99.90;;;;;;5008226;28;20248;-33
2022/12/01 11:38:08;;;;;;;28.00;17.90;;;9.10;99.90;;;;;;5008352;28;20220;-33
2022/12/01 11:40:57;;;;;;;28.77;18.87;;;9.20;99.90;;;;;;5008679;28;20206;-34
2022/12/01 11:43:37;;;;;;;31.07;19.90;;;9.10;99.90;;;;;;5008115;28;20630;-33
2022/12/01 11:46:08;;;;;;;31.90;20.27;;;9.10;99.90;;;;;;5023135;28;20579;-33
2022/12/01 11:48:36;;;;;;;30.23;20.13;;;9.10;99.90;;;;;;5008051;28;20251;-33
2022/12/01 11:51:20;;;;;;;33.00;20.20;;;9.20;99.90;;;;;;5007459;28;20286;-33
2022/12/01 11:54:34;;;;;;;29.70;20.07;;;9.20;99.90;;;;;;5008032;28;20256;-32
2022/12/01 11:57:02;;;;;;;28.03;18.57;;;9.20;99.90;;;;;;5003620;28;20209;-33
2022/12/01 11:59:53;;;;;;;28.60;18.73;;;9.20;99.90;;;;;;5008185;28;20206;-33
2022/12/01 12:02:44;;;;;;;29.73;19.87;;;9.20;99.90;;;;;;5008017;28;20307;-33
2022/12/01 12:05:50;;;;;;;32.37;20.13;;;9.20;99.90;;;;;;5007721;28;20643;-33
2022/12/01 12:09:03;;;;;;;31.77;19.37;;;9.10;99.90;;;;;;4999837;28;20209;-33
2022/12/01 12:11:47;;;;;;;27.83;18.87;;;9.10;99.90;;;;;;4999436;28;20253;-33
2022/12/01 12:14:35;;;;;;;30.03;19.30;;;9.10;99.90;;;;;;5007888;28;20209;-33
2022/12/01 12:17:17;;;;;;;32.90;19.80;;;9.10;99.90;;;;;;5022415;28;20217;-33
2022/12/01 12:19:56;;;;;;;30.47;19.87;;;9.10;99.90;;;;;;5007430;28;20217;-33
2022/12/01 12:23:05;;;;;;;31.83;19.83;;;9.20;99.90;;;;;;5021086;28;20568;-33
2022/12/01 12:25:53;;;;;;;30.97;19.27;;;9.20;99.90;;;;;;5007323;28;20300;-33
2022/12/01 12:28:26;;;;;;;30.40;19.10;;;9.20;99.90;;;;;;5022075;28;20271;-33
2022/12/01 12:31:05;;;;;;;29.43;19.47;;;9.20;99.90;;;;;;5007072;28;20217;-33
2022/12/01 12:33:46;;;;;;;30.67;19.60;;;9.20;99.90;;;;;;5007408;28;20699;-33
2022/12/01 12:36:22;;;;;;;32.90;19.13;;;9.20;99.90;;;;;;5007750;28;20201;-33
2022/12/01 12:39:21;;;;;;;35.27;19.30;;;9.10;99.90;;;;;;5007236;28;20213;-33
2022/12/01 12:41:52;;;;;;;29.47;18.70;;;9.20;99.90;;;;;;5007364;28;20293;-33
2022/12/01 12:44:47;;;;;;;29.00;18.10;;;9.10;99.90;;;;;;5007294;28;20201;-33
2022/12/01 12:47:20;;;;;;;32.43;20.20;;;9.10;99.90;;;;;;5006915;28;20623;-33
2022/12/01 12:50:13;;;;;;;30.60;19.47;;;9.10;99.90;;;;;;5006958;28;20731;-34
2022/12/01 12:52:44;;;;;;;32.03;20.50;;;9.10;99.90;;;;;;5006818;28;20331;-33
2022/12/01 12:55:14;;;;;;;32.07;20.53;;;9.10;99.90;;;;;;5007035;28;20198;-33
2022/12/01 12:58:16;;;;;;;33.17;20.60;;;9.10;99.90;;;;;;5006920;28;20623;-32
2022/12/01 13:00:53;;;;;;;32.67;20.07;;;9.10;99.90;;;;;;4997573;28;20301;-32
2022/12/01 13:03:51;;;;;;;30.60;19.80;;;9.10;99.90;;;;;;5006897;28;20206;-32
2022/12/01 13:06:31;;;;;;;30.03;20.30;;;9.10;99.90;;;;;;5006839;28;20932;-32
2022/12/01 13:09:23;;;;;;;31.50;20.83;;;9.10;99.90;;;;;;5007136;28;20625;-32
2022/12/01 13:12:06;;;;;;;35.20;21.67;;;9.10;99.90;;;;;;5021019;28;20336;-32
2022/12/01 13:14:53;;;;;;;32.33;20.67;;;9.10;99.90;;;;;;5006297;28;20810;-32
2022/12/01 13:17:39;;;;;;;33.83;20.90;;;9.10;99.90;;;;;;5006705;28;20228;-32
2022/12/01 13:20:12;;;;;;;32.50;20.70;;;9.20;99.90;;;;;;5006740;28;20263;-32
2022/12/01 13:22:42;;;;;;;32.43;20.23;;;9.20;99.90;;;;;;5006446;28;20213;-32